createdAt,value
2022-10-05T00:00:22.509Z,99260.09
2022-10-05T00:02:52.595Z,99252.31
2022-10-05T00:05:34.557Z,99253.94
2022-10-05T00:08:24.739Z,99262.16
2022-10-05T00:10:53.026Z,99261.94
2022-10-05T00:13:29.807Z,99262.22
2022-10-05T00:16:06.495Z,99267.66
2022-10-05T00:18:33.909Z,99269.13
2022-10-05T00:21:02.088Z,99265.66
2022-10-05T00:23:31.967Z,99260.69
2022-10-05T00:26:26.838Z,99265.97
2022-10-05T00:28:55.435Z,99263.41
2022-10-05T00:31:33.243Z,99262.13
2022-10-05T00:34:00.869Z,99258.28
2022-10-05T00:36:28.394Z,99255.94
2022-10-05T00:38:55.900Z,99260.22
2022-10-05T00:41:47.556Z,99262.66
2022-10-05T00:44:20.774Z,99253.22
2022-10-05T00:47:09.930Z,99264.41
2022-10-05T00:49:55.613Z,99250.75
2022-10-05T00:52:47.262Z,99249.84
2022-10-05T00:55:28.423Z,99256.69
2022-10-05T00:58:48.316Z,99254.88
2022-10-05T01:01:52.243Z,99253.28
2022-10-05T01:04:54.278Z,99256.28
2022-10-05T01:08:00.322Z,99260.31
2022-10-05T01:10:56.400Z,99256.53
2022-10-05T01:13:57.472Z,99259.25
2022-10-05T01:16:30.400Z,99262.63
2022-10-05T01:19:25.635Z,99264.50
2022-10-05T01:22:10.312Z,99257.63
2022-10-05T01:24:52.579Z,99258.97
2022-10-05T01:27:43.630Z,99257.47
2022-10-05T01:30:17.701Z,99256.34
2022-10-05T01:33:12.478Z,99269.13
2022-10-05T01:35:55.148Z,99265.19
2022-10-05T01:38:22.510Z,99253.09
2022-10-05T01:41:12.487Z,99267.91
2022-10-05T01:43:55.545Z,99260.47
2022-10-05T01:46:39.286Z,99268.66
2022-10-05T01:49:23.951Z,99251.28
2022-10-05T01:52:10.105Z,99245.50
2022-10-05T01:55:02.001Z,99249.69
2022-10-05T01:57:47.949Z,99244.84
2022-10-05T02:00:19.004Z,99248.56
2022-10-05T02:02:52.813Z,99243.72
2022-10-05T02:05:24.643Z,99245.44
2022-10-05T02:08:00.835Z,99248.91
2022-10-05T02:10:46.837Z,99247.47
2022-10-05T02:13:21.730Z,99250.84
2022-10-05T02:15:54.951Z,99250.31
2022-10-05T02:18:29.232Z,99250.41
2022-10-05T02:21:01.978Z,99252.91
2022-10-05T02:23:36.138Z,99255.81
2022-10-05T02:26:05.291Z,99246.34
2022-10-05T02:28:45.326Z,99256.34
2022-10-05T02:31:19.768Z,99258.28
2022-10-05T02:33:48.975Z,99246.34
2022-10-05T02:36:32.559Z,99265.06
2022-10-05T02:39:21.225Z,99269.38
2022-10-05T02:42:12.064Z,99267.00
2022-10-05T02:45:07.623Z,99276.03
2022-10-05T02:47:42.938Z,99271.31
2022-10-05T02:50:36.535Z,99267.19
2022-10-05T02:53:36.249Z,99267.34
2022-10-05T02:56:14.921Z,99267.75
2022-10-05T02:58:51.851Z,99265.81
2022-10-05T03:01:31.996Z,99262.31
2022-10-05T03:04:11.180Z,99258.28
2022-10-05T03:07:16.111Z,99244.06
2022-10-05T03:10:00.920Z,99235.50
2022-10-05T03:12:45.674Z,99240.81
2022-10-05T03:15:45.451Z,99252.59
2022-10-05T03:18:31.493Z,99242.63
2022-10-05T03:21:23.830Z,99242.63
2022-10-05T03:23:57.323Z,99244.78
2022-10-05T03:26:34.301Z,99252.09
2022-10-05T03:29:25.881Z,99252.00
2022-10-05T03:32:10.398Z,99257.34
2022-10-05T03:35:08.378Z,99249.72
2022-10-05T03:38:01.580Z,99249.47
2022-10-05T03:40:47.164Z,99254.31
2022-10-05T03:43:30.566Z,99260.59
2022-10-05T03:46:23.393Z,99250.53
2022-10-05T03:49:27.917Z,99257.19
2022-10-05T03:52:15.670Z,99253.06
2022-10-05T03:55:00.164Z,99255.34
2022-10-05T03:57:33.821Z,99252.06
2022-10-05T04:00:06.841Z,99257.13
2022-10-05T04:03:11.458Z,99243.88
2022-10-05T04:05:51.092Z,99251.72
2022-10-05T04:08:33.092Z,99251.81
2022-10-05T04:11:06.298Z,99253.44
2022-10-05T04:13:52.814Z,99254.69
2022-10-05T04:16:30.008Z,99228.13
2022-10-05T04:19:22.363Z,99249.16
2022-10-05T04:22:00.300Z,99254.31
2022-10-05T04:24:28.338Z,99253.19
2022-10-05T04:27:06.231Z,99245.56
2022-10-05T04:29:53.858Z,99245.06
2022-10-05T04:32:38.032Z,99237.19
2022-10-05T04:35:22.282Z,99230.69
2022-10-05T04:38:11.110Z,99228.16
2022-10-05T04:40:50.650Z,99238.13
2022-10-05T04:43:46.743Z,99241.69
2022-10-05T04:46:33.089Z,99234.47
2022-10-05T04:49:39.774Z,99233.56
2022-10-05T04:52:34.660Z,99245.69
2022-10-05T04:55:17.228Z,99249.13
2022-10-05T04:57:57.974Z,99240.84
2022-10-05T05:00:44.128Z,99231.44
2022-10-05T05:03:47.160Z,99239.16
2022-10-05T05:06:57.334Z,99233.97
2022-10-05T05:10:02.312Z,99230.66
2022-10-05T05:13:09.581Z,99227.63
2022-10-05T05:15:54.297Z,99215.09
2022-10-05T05:18:33.898Z,99211.88
2022-10-05T05:21:17.126Z,99203.59
2022-10-05T05:23:59.377Z,99211.00
2022-10-05T05:26:38.871Z,99204.31
2022-10-05T05:29:44.842Z,99212.94
2022-10-05T05:32:24.280Z,99215.63
2022-10-05T05:35:00.778Z,99224.19
2022-10-05T05:37:53.766Z,99230.00
2022-10-05T05:40:27.120Z,99223.25
2022-10-05T05:43:00.741Z,99220.84
2022-10-05T05:45:42.381Z,99201.50
2022-10-05T05:48:37.249Z,99199.06
2022-10-05T05:51:05.188Z,99191.91
2022-10-05T05:53:48.445Z,99194.22
2022-10-05T05:56:21.626Z,99186.72
2022-10-05T05:59:01.517Z,99195.31
2022-10-05T06:01:56.094Z,99193.41
2022-10-05T06:04:36.264Z,99198.56
2022-10-05T06:07:06.538Z,99187.28
2022-10-05T06:09:45.293Z,99196.16
2022-10-05T06:12:35.007Z,99198.53
2022-10-05T06:15:34.388Z,99195.66
2022-10-05T06:18:11.237Z,99189.66
2022-10-05T06:21:00.153Z,99198.63
2022-10-05T06:23:39.463Z,99188.75
2022-10-05T06:26:40.267Z,99186.78
2022-10-05T06:29:23.142Z,99182.78
2022-10-05T06:31:59.048Z,99176.25
2022-10-05T06:34:56.788Z,99181.06
2022-10-05T06:37:34.496Z,99170.06
2022-10-05T06:40:24.863Z,99172.22
2022-10-05T06:43:21.570Z,99176.56
2022-10-05T06:46:31.946Z,99168.84
2022-10-05T06:49:16.854Z,99172.00
2022-10-05T06:52:28.138Z,99171.34
2022-10-05T06:55:04.704Z,99177.97
2022-10-05T06:57:58.746Z,99172.16
2022-10-05T07:00:50.966Z,99176.72
2022-10-05T07:03:47.445Z,99178.09
2022-10-05T07:06:26.102Z,99175.97
2022-10-05T07:09:21.320Z,99175.28
2022-10-05T07:12:16.996Z,99172.22
2022-10-05T07:15:24.730Z,99157.28
2022-10-05T07:18:21.743Z,99151.78
2022-10-05T07:21:14.025Z,99149.72
2022-10-05T07:24:02.130Z,99140.41
2022-10-05T07:26:45.878Z,99150.50
2022-10-05T07:29:26.007Z,99141.16
2022-10-05T07:32:22.599Z,99133.31
2022-10-05T07:35:09.561Z,99127.13
2022-10-05T07:37:58.070Z,99125.25
2022-10-05T07:40:50.223Z,99119.75
2022-10-05T07:44:02.022Z,99140.25
2022-10-05T07:46:50.467Z,99137.28
2022-10-05T07:49:49.934Z,99134.84
2022-10-05T07:52:32.380Z,99130.44
2022-10-05T07:55:39.154Z,99127.28
2022-10-05T07:58:19.315Z,99127.06
2022-10-05T08:01:09.150Z,99116.81
2022-10-05T08:04:29.230Z,99112.06
2022-10-05T08:07:00.493Z,99121.56
2022-10-05T08:09:42.478Z,99125.09
2022-10-05T08:12:33.647Z,99123.97
2022-10-05T08:15:16.789Z,99126.81
2022-10-05T08:17:52.891Z,99119.22
2022-10-05T08:20:43.445Z,99114.69
2022-10-05T08:23:10.849Z,99115.53
2022-10-05T08:25:47.341Z,99127.28
2022-10-05T08:28:34.419Z,99115.56
2022-10-05T08:31:25.305Z,99104.66
2022-10-05T08:34:05.096Z,99105.44
2022-10-05T08:36:58.967Z,99089.00
2022-10-05T08:39:32.141Z,99083.53
2022-10-05T08:42:16.835Z,99077.25
2022-10-05T08:45:09.414Z,99085.88
2022-10-05T08:48:06.956Z,99078.41
2022-10-05T08:51:14.359Z,99077.66
2022-10-05T08:54:09.435Z,99074.94
2022-10-05T08:57:13.788Z,99073.34
2022-10-05T08:59:47.100Z,99073.38
2022-10-05T09:02:29.385Z,99077.25
2022-10-05T09:05:18.629Z,99072.53
2022-10-05T09:07:45.997Z,99063.59
2022-10-05T09:10:33.140Z,99074.53
2022-10-05T09:13:19.106Z,99054.22
2022-10-05T09:16:24.103Z,99061.25
2022-10-05T09:19:37.969Z,99059.28
2022-10-05T09:23:07.091Z,99067.47
2022-10-05T09:25:44.263Z,99077.28
2022-10-05T09:28:42.755Z,99061.25
2022-10-05T09:31:27.149Z,99059.28
2022-10-05T09:34:27.878Z,99062.44
2022-10-05T09:37:18.426Z,99060.06
2022-10-05T09:40:03.979Z,99050.69
2022-10-05T09:42:46.514Z,99046.75
2022-10-05T09:45:28.713Z,99038.97
2022-10-05T09:48:13.215Z,99039.75
2022-10-05T09:51:05.238Z,99033.91
2022-10-05T09:53:51.393Z,99031.91
2022-10-05T09:56:44.109Z,99035.44
2022-10-05T09:59:27.555Z,99041.31
2022-10-05T10:01:58.254Z,99036.66
2022-10-05T10:04:44.041Z,99052.66
2022-10-05T10:07:29.999Z,99047.97
2022-10-05T10:10:15.887Z,99047.53
2022-10-05T10:13:00.819Z,99044.03
2022-10-05T10:15:46.120Z,99043.25
2022-10-05T10:18:16.343Z,99029.59
2022-10-05T10:20:46.534Z,99040.50
2022-10-05T10:23:41.409Z,99036.56
2022-10-05T10:26:36.900Z,99015.44
2022-10-05T10:29:07.262Z,99024.50
2022-10-05T10:31:52.864Z,99013.53
2022-10-05T10:34:41.697Z,99013.53
2022-10-05T10:37:35.747Z,99004.56
2022-10-05T10:40:26.363Z,99015.13
2022-10-05T10:42:53.997Z,99021.41
2022-10-05T10:45:27.547Z,99028.81
2022-10-05T10:48:05.599Z,99037.03
2022-10-05T10:51:04.714Z,99035.09
2022-10-05T10:53:38.121Z,99033.88
2022-10-05T10:56:18.160Z,99014.72
2022-10-05T10:59:04.167Z,99014.72
2022-10-05T11:01:50.906Z,99019.41
2022-10-05T11:04:55.232Z,99006.91
2022-10-05T11:07:43.267Z,99007.69
2022-10-05T11:10:47.791Z,99010.41
2022-10-05T11:13:45.582Z,99004.53
2022-10-05T11:16:56.924Z,99020.19
2022-10-05T11:20:02.948Z,99030.31
2022-10-05T11:22:51.099Z,99019.75
2022-10-05T11:25:27.967Z,99015.03
2022-10-05T11:28:14.514Z,99022.06
2022-10-05T11:31:12.179Z,99024.03
2022-10-05T11:34:01.324Z,99020.50
2022-10-05T11:37:05.749Z,99015.44
2022-10-05T11:39:43.370Z,99007.56
2022-10-05T11:42:28.986Z,99014.97
2022-10-05T11:45:24.577Z,99012.25
2022-10-05T11:48:13.504Z,99010.63
2022-10-05T11:51:03.794Z,99022.75
2022-10-05T11:53:43.393Z,99020.78
2022-10-05T11:56:22.107Z,99003.09
2022-10-05T11:59:03.851Z,99007.41
2022-10-05T12:01:56.026Z,99006.31
2022-10-05T12:04:45.651Z,99010.22
2022-10-05T12:07:35.617Z,99008.16
2022-10-05T12:10:28.304Z,99012.09
2022-10-05T12:13:21.580Z,99012.50
2022-10-05T12:16:07.733Z,99004.22
2022-10-05T12:18:39.474Z,98999.44
2022-10-05T12:21:25.099Z,98986.94
2022-10-05T12:23:59.296Z,98992.84
2022-10-05T12:26:53.428Z,98993.25
2022-10-05T12:30:03.856Z,98989.38
2022-10-05T12:33:02.555Z,98968.25
2022-10-05T12:35:56.256Z,98979.91
2022-10-05T12:38:30.641Z,98975.19
2022-10-05T12:41:07.532Z,98979.75
2022-10-05T12:43:43.848Z,98989.97
2022-10-05T12:46:46.085Z,98994.28
2022-10-05T12:49:24.962Z,98991.56
2022-10-05T12:52:05.321Z,98999.75
2022-10-05T12:55:14.549Z,98992.38
2022-10-05T12:58:05.635Z,99000.13
2022-10-05T13:00:39.587Z,99015.22
2022-10-05T13:03:25.207Z,99004.38
2022-10-05T13:05:52.619Z,99003.03
2022-10-05T13:08:42.140Z,99006.25
2022-10-05T13:11:18.883Z,98997.25
2022-10-05T13:14:05.531Z,98980.38
2022-10-05T13:16:54.807Z,98986.03
2022-10-05T13:19:39.557Z,98980.91
2022-10-05T13:22:37.014Z,98978.97
2022-10-05T13:25:35.226Z,98987.56
2022-10-05T13:28:02.639Z,98967.84
2022-10-05T13:30:30.367Z,98977.22
2022-10-05T13:33:06.785Z,98976.50
2022-10-05T13:35:57.417Z,98976.19
2022-10-05T13:38:42.690Z,98966.03
2022-10-05T13:41:28.396Z,98969.09
2022-10-05T13:44:24.974Z,98981.59
2022-10-05T13:47:19.535Z,98983.44
2022-10-05T13:49:58.115Z,98993.66
2022-10-05T13:53:10.817Z,98998.69
2022-10-05T13:55:57.565Z,99010.72
2022-10-05T13:58:40.138Z,99013.13
2022-10-05T14:01:26.976Z,99002.22
2022-10-05T14:04:42.364Z,98994.91
2022-10-05T14:07:30.635Z,98982.72
2022-10-05T14:10:02.173Z,98968.91
2022-10-05T14:12:40.601Z,98977.59
2022-10-05T14:15:28.548Z,98973.69
2022-10-05T14:17:56.258Z,98958.38
2022-10-05T14:20:37.551Z,98958.59
2022-10-05T14:23:18.475Z,98955.88
2022-10-05T14:25:54.801Z,98941.97
2022-10-05T14:28:39.820Z,98921.69
2022-10-05T14:31:28.163Z,98906.97
2022-10-05T14:33:55.910Z,98911.03
2022-10-05T14:36:40.345Z,98928.34
2022-10-05T14:39:13.248Z,98911.44
2022-10-05T14:41:49.543Z,98891.59
2022-10-05T14:47:23.631Z,98899.31
2022-10-05T14:50:10.976Z,98899.19
2022-10-05T14:52:41.376Z,98888.22
2022-10-05T14:55:38.288Z,98893.09
2022-10-05T14:58:43.499Z,98888.91
2022-10-05T15:01:26.656Z,98882.22
2022-10-05T15:03:59.782Z,98883.53
2022-10-05T15:06:36.931Z,98892.53
2022-10-05T15:09:19.564Z,98875.44
2022-10-05T15:11:54.726Z,98868.09
2022-10-05T15:14:27.510Z,98865.19
2022-10-05T15:17:04.836Z,98866.38
2022-10-05T15:19:48.498Z,98878.81
2022-10-05T15:22:24.057Z,98876.75
2022-10-05T15:25:10.895Z,98879.47
2022-10-05T15:27:50.699Z,98889.31
2022-10-05T15:30:19.114Z,98885.75
2022-10-05T15:33:14.244Z,98887.16
2022-10-05T15:36:16.099Z,98893.41
2022-10-05T15:39:11.288Z,98888.09
2022-10-05T15:42:00.433Z,98895.28
2022-10-05T15:44:49.659Z,98901.84
2022-10-05T15:47:26.031Z,98901.66
2022-10-05T15:50:05.826Z,98901.91
2022-10-05T15:52:48.441Z,98903.88
2022-10-05T15:55:15.833Z,98896.19
2022-10-05T15:57:45.857Z,98902.00
2022-10-05T16:00:19.337Z,98909.03
2022-10-05T16:03:06.884Z,98910.97
2022-10-05T16:06:13.804Z,98911.09
2022-10-05T16:08:56.041Z,98904.31
2022-10-05T16:11:37.073Z,98905.56
2022-10-05T16:14:22.652Z,98898.16
2022-10-05T16:17:01.218Z,98893.00
2022-10-05T16:19:36.708Z,98888.09
2022-10-05T16:22:43.460Z,98887.59
2022-10-05T16:25:17.987Z,98880.75
2022-10-05T16:27:53.135Z,98874.47
2022-10-05T16:30:23.354Z,98878.00
2022-10-05T16:33:18.869Z,98872.06
2022-10-05T16:35:59.342Z,98870.88
2022-10-05T16:38:58.084Z,98867.22
2022-10-05T16:41:35.735Z,98861.50
2022-10-05T16:44:36.962Z,98867.44
2022-10-05T16:47:35.226Z,98864.97
2022-10-05T16:50:20.420Z,98868.56
2022-10-05T16:52:55.407Z,98874.66
2022-10-05T16:55:34.419Z,98866.47
2022-10-05T16:58:05.982Z,98867.44
2022-10-05T17:00:52.201Z,98855.88
2022-10-05T17:03:57.433Z,98864.59
2022-10-05T17:06:31.056Z,98860.66
2022-10-05T17:09:01.783Z,98856.75
2022-10-05T17:11:42.880Z,98848.19
2022-10-05T17:14:35.348Z,98851.94
2022-10-05T17:17:49.374Z,98849.59
2022-10-05T17:20:43.906Z,98852.22
2022-10-05T17:23:20.897Z,98849.72
2022-10-05T17:25:56.768Z,98851.59
2022-10-05T17:28:41.502Z,98843.19
2022-10-05T17:31:16.646Z,98849.53
2022-10-05T17:33:59.479Z,98841.84
2022-10-05T17:36:39.445Z,98845.25
2022-10-05T17:39:18.569Z,98847.09
2022-10-05T17:41:47.138Z,98825.06
2022-10-05T17:44:16.479Z,98842.78
2022-10-05T17:46:52.070Z,98847.28
2022-10-05T17:49:34.671Z,98837.03
2022-10-05T17:52:26.955Z,98841.81
2022-10-05T17:55:15.136Z,98835.91
2022-10-05T17:57:42.731Z,98823.72
2022-10-05T18:00:56.276Z,98834.50
2022-10-05T18:03:50.722Z,98833.22
2022-10-05T18:06:34.909Z,98833.94
2022-10-05T18:09:17.296Z,98835.22
2022-10-05T18:12:06.335Z,98833.84
2022-10-05T18:14:52.744Z,98824.41
2022-10-05T18:17:42.264Z,98817.56
2022-10-05T18:20:24.530Z,98822.34
2022-10-05T18:22:54.488Z,98808.66
2022-10-05T18:25:40.232Z,98807.41
2022-10-05T18:28:52.169Z,98798.16
2022-10-05T18:31:55.467Z,98787.59
2022-10-05T18:34:43.846Z,98778.53
2022-10-05T18:37:23.400Z,98780.63
2022-10-05T18:39:57.095Z,98784.09
2022-10-05T18:42:36.778Z,98772.69
2022-10-05T18:45:09.490Z,98774.94
2022-10-05T18:47:37.214Z,98771.03
2022-10-05T18:50:25.972Z,98773.97
2022-10-05T18:53:05.863Z,98767.84
2022-10-05T18:55:44.169Z,98763.28
2022-10-05T18:58:22.413Z,98761.44
2022-10-05T19:01:17.093Z,98763.66
2022-10-05T19:03:47.732Z,98748.66
2022-10-05T19:06:24.617Z,98759.34
2022-10-05T19:09:22.513Z,98759.34
2022-10-05T19:12:04.357Z,98753.56
2022-10-05T19:14:44.401Z,98745.69
2022-10-05T19:17:20.875Z,98742.13
2022-10-05T19:20:00.421Z,98735.31
2022-10-05T19:22:58.721Z,98747.44
2022-10-05T19:25:49.911Z,98743.88
2022-10-05T19:28:41.769Z,98750.09
2022-10-05T19:31:12.315Z,98751.41
2022-10-05T19:34:04.108Z,98759.75
2022-10-05T19:36:49.205Z,98759.38
2022-10-05T19:39:42.857Z,98758.31
2022-10-05T19:42:49.396Z,98752.81
2022-10-05T19:45:23.236Z,98758.78
2022-10-05T19:48:09.210Z,98758.13
2022-10-05T19:50:38.692Z,98753.91
2022-10-05T19:53:14.260Z,98751.66
2022-10-05T19:55:43.988Z,98751.53
2022-10-05T19:58:27.317Z,98761.09
2022-10-05T20:00:54.985Z,98751.13
2022-10-05T20:03:37.022Z,98753.91
2022-10-05T20:06:06.802Z,98757.34
2022-10-05T20:08:44.087Z,98737.72
2022-10-05T20:11:17.020Z,98748.81
2022-10-05T20:13:53.679Z,98746.66
2022-10-05T20:16:46.643Z,98743.84
2022-10-05T20:19:36.514Z,98748.22
2022-10-05T20:22:28.555Z,98743.94
2022-10-05T20:25:18.996Z,98748.56
2022-10-05T20:27:49.426Z,98735.88
2022-10-05T20:30:34.172Z,98736.59
2022-10-05T20:33:02.177Z,98724.41
2022-10-05T20:35:30.949Z,98730.53
2022-10-05T20:38:00.482Z,98711.50
2022-10-05T20:40:31.438Z,98712.34
2022-10-05T20:42:59.221Z,98701.84
2022-10-05T20:45:26.858Z,98704.91
2022-10-05T20:47:54.334Z,98693.28
2022-10-05T20:50:22.508Z,98700.28
2022-10-05T20:52:49.980Z,98707.63
2022-10-05T20:55:17.573Z,98703.78
2022-10-05T20:57:46.341Z,98708.41
2022-10-05T21:00:14.341Z,98707.22
2022-10-05T21:02:41.836Z,98695.09
2022-10-05T21:05:09.946Z,98708.66
2022-10-05T21:07:37.498Z,98702.44
2022-10-05T21:10:05.453Z,98710.56
2022-10-05T21:12:34.322Z,98701.66
2022-10-05T21:15:04.964Z,98686.53
2022-10-05T21:17:35.385Z,98690.84
2022-10-05T21:20:02.800Z,98685.38
2022-10-05T21:22:31.488Z,98677.66
2022-10-05T21:24:59.016Z,98680.81
2022-10-05T21:27:26.406Z,98680.44
2022-10-05T21:29:53.954Z,98680.50
2022-10-05T21:32:21.283Z,98671.66
2022-10-05T21:34:48.787Z,98677.47
2022-10-05T21:37:16.334Z,98661.81
2022-10-05T21:39:44.150Z,98679.66
2022-10-05T21:42:11.551Z,98672.59
2022-10-05T21:44:39.037Z,98670.63
2022-10-05T21:47:07.180Z,98662.06
2022-10-05T21:49:39.927Z,98659.75
2022-10-05T21:52:07.400Z,98651.91
2022-10-05T21:54:35.318Z,98656.16
2022-10-05T21:57:03.093Z,98656.50
2022-10-05T21:59:34.613Z,98661.22
2022-10-05T22:02:02.686Z,98649.44
2022-10-05T22:04:30.054Z,98649.09
2022-10-05T22:06:57.481Z,98653.38
2022-10-05T22:09:24.983Z,98649.09
2022-10-05T22:11:52.500Z,98649.44
2022-10-05T22:14:19.957Z,98652.94
2022-10-05T22:16:47.827Z,98654.16
2022-10-05T22:19:19.446Z,98669.84
2022-10-05T22:21:47.209Z,98667.34
2022-10-05T22:24:14.860Z,98672.47
2022-10-05T22:26:45.004Z,98669.41
2022-10-05T22:29:14.186Z,98658.13
2022-10-05T22:31:42.425Z,98644.47
2022-10-05T22:34:09.950Z,98647.94
2022-10-05T22:36:37.820Z,98642.03
2022-10-05T22:39:05.325Z,98646.81
2022-10-05T22:41:32.772Z,98644.47
2022-10-05T22:44:00.918Z,98638.84
2022-10-05T22:46:28.605Z,98637.81
2022-10-05T22:48:56.131Z,98627.34
2022-10-05T22:51:23.660Z,98628.41
2022-10-05T22:53:51.177Z,98631.19
2022-10-05T22:56:18.788Z,98629.63
2022-10-05T22:58:46.655Z,98626.91
2022-10-05T23:01:18.922Z,98624.31
2022-10-05T23:03:47.060Z,98614.84
2022-10-05T23:06:17.789Z,98633.13
2022-10-05T23:08:46.383Z,98626.78
2022-10-05T23:11:19.520Z,98632.69
2022-10-05T23:13:46.953Z,98626.06
2022-10-05T23:16:17.774Z,98627.34
2022-10-05T23:18:48.957Z,98621.59
2022-10-05T23:21:17.197Z,98608.25
2022-10-05T23:23:51.276Z,98613.31
2022-10-05T23:26:21.688Z,98619.69
2022-10-05T23:28:50.342Z,98613.78
2022-10-05T23:31:30.374Z,98610.09
2022-10-05T23:33:57.961Z,98598.03
2022-10-05T23:36:28.148Z,98615.81
2022-10-05T23:38:55.617Z,98603.00
2022-10-05T23:41:23.053Z,98593.28
2022-10-05T23:43:50.880Z,98611.03
2022-10-05T23:46:18.516Z,98592.53
2022-10-05T23:48:46.072Z,98596.44
2022-10-05T23:51:14.729Z,98600.59
2022-10-05T23:53:42.233Z,98612.72
2022-10-05T23:56:09.606Z,98600.03
2022-10-05T23:58:37.233Z,98610.59
